Terminal Aerodrome Forecast
Issued by NWS

Home | Current Version | Previous Version | Text Only | Print | Product List | Glossary On
Versions: 1 2 3 4 5 6 7 8 9 10 11 12 13 14 15 16 17
000
FTUS43 KIWX 251700
TAFSBN
TAF
KSBN 251720Z 2518/2618 20008KT P6SM FEW050 BKN150
      TEMPO 2522/2602 -RA OVC100
     FM260200 18008KT P6SM OVC080 PROB30 2605/2609 -TSRA OVC040CB
     FM261300 21007KT P6SM BKN040 OVC080=

USA.gov is the U.S. government's official web portal to all federal, state and local government web resources and services.